Kaiyo — JGBF — position and weather

sailwx.info

Track history (hours):
 
Tides and Currents Weather Stations Pressure Air Temp Water Temp Dewpoint Dewpoint Depression Visibility Wind Speed Wind Dir Waves Ship Positions

Oceanographic research ship Kaiyo (Japan)

Detailed information on ship capabilities available from University of Delaware's Ocean Information Center.

Last reported at 2017-Aug-03 05:39 UTC. Time now 2017-Aug-17 01:40 UTC.
Position N 35°38' E 139°47'.
Warning: this ship's position is 13 days out of date.

Length 58 m; draft 3 m.

Type: Ship. MMSI: 431100049.

Date/timePositionNaut miles runAvg speedWind from/ knotsBaromVisibWave heightAir tempDewpointWater temp
2017-Aug-03 05:39N 35°38' E 139°47'0 0.0
2017-Aug-03 05:30N 35°38' E 139°47'1 1.4
2017-Aug-03 05:00N 35°38' E 139°46'510.4
2017-Aug-03 04:30N 35°34' E 139°49'8 9.7
2017-Aug-03 03:39N 35°26' E 139°48'211.2
2017-Aug-03 03:29N 35°24' E 139°47'611.8
2017-Aug-03 03:00N 35°19' E 139°44'611.9
2017-Aug-03 02:30N 35°13' E 139°47'612.0
2017-Aug-03 02:00N 35°07' E 139°46'612.9
2017-Aug-03 01:30N 35°01' E 139°44'9 0.7
2017-Aug-02 13:05N 34°53' E 139°41'212.1
2017-Aug-02 12:56N 34°54' E 139°38'  
2017-Jul-27 06:00N 34°59' E 139°33'612.7
2017-Jul-27 05:30N 35°04' E 139°39'714.2
2017-Jul-27 05:01N 35°09' E 139°44'713.7
2017-Jul-27 04:30N 35°15' E 139°46'612.9
2017-Jul-27 04:00N 35°21' E 139°42'612.4
2017-Jul-27 03:30N 35°26' E 139°46'612.4
2017-Jul-27 03:00N 35°31' E 139°51'611.3
2017-Jul-27 02:30N 35°36' E 139°47'2 4.3
2017-Jul-27 02:00N 35°38' E 139°47'0 0.0
2017-Jul-27 01:30N 35°38' E 139°47'  
Track history (hours):
 
Tides and Currents Weather Stations Pressure Air Temp Water Temp Dewpoint Dewpoint Depression Visibility Wind Speed Wind Dir Waves Ship Positions

Oceanographic research ship Kaiyo (Japan)

Detailed information on ship capabilities available from University of Delaware's Ocean Information Center.

Last reported at 2017-Aug-03 05:39 UTC. Time now 2017-Aug-17 01:40 UTC.
Position N 35°38' E 139°47'.
Warning: this ship's position is 13 days out of date.

Length 58 m; draft 3 m.

Type: Ship. MMSI: 431100049.

Date/timePositionNaut miles runAvg speedWind from/ knotsBaromVisibWave heightAir tempDewpointWater temp
2017-Aug-03 05:39N 35°38' E 139°47'0 0.0
2017-Aug-03 05:30N 35°38' E 139°47'1 1.4
2017-Aug-03 05:00N 35°38' E 139°46'510.4
2017-Aug-03 04:30N 35°34' E 139°49'8 9.7
2017-Aug-03 03:39N 35°26' E 139°48'211.2
2017-Aug-03 03:29N 35°24' E 139°47'611.8
2017-Aug-03 03:00N 35°19' E 139°44'611.9
2017-Aug-03 02:30N 35°13' E 139°47'612.0
2017-Aug-03 02:00N 35°07' E 139°46'612.9
2017-Aug-03 01:30N 35°01' E 139°44'9 0.7
2017-Aug-02 13:05N 34°53' E 139°41'212.1
2017-Aug-02 12:56N 34°54' E 139°38'  
2017-Jul-27 06:00N 34°59' E 139°33'612.7
2017-Jul-27 05:30N 35°04' E 139°39'714.2
2017-Jul-27 05:01N 35°09' E 139°44'713.7
2017-Jul-27 04:30N 35°15' E 139°46'612.9
2017-Jul-27 04:00N 35°21' E 139°42'612.4
2017-Jul-27 03:30N 35°26' E 139°46'612.4
2017-Jul-27 03:00N 35°31' E 139°51'611.3
2017-Jul-27 02:30N 35°36' E 139°47'2 4.3
2017-Jul-27 02:00N 35°38' E 139°47'0 0.0
2017-Jul-27 01:30N 35°38' E 139°47'  

Dump ship's entire track history